Time;durP1;ratioP1;P1;durP2;ratioP2;P2;SDS_P1;SDS_P2;PMS_P1;PMS_P2;Temp;Humidity;BMP_temperature;BMP_pressure;BME280_temperature;BME280_humidity;BME280_pressure;Samples;Min_cycle;Max_cycle;Signal;HPM_P1;HPM_P2
2022/12/15 00:39:27;;;;;;;47.88;24.15;;;;;;;;;;5096827;28;20238;-65
2022/12/15 00:41:54;;;;;;;49.45;25.60;;;;;;;;;;5096196;28;20715;-65
2022/12/15 00:44:22;;;;;;;47.67;25.83;;;;;;;;;;5096156;28;20224;-65
2022/12/15 00:46:55;;;;;;;45.53;26.23;;;;;;;;;;5096051;28;20216;-65
2022/12/15 01:22:25;;;;;;;36.33;20.40;;;;;;;;;;5095561;28;20196;-66
2022/12/15 01:24:52;;;;;;;37.63;21.33;;;;;;;;;;5095329;28;20197;-65
2022/12/15 01:27:19;;;;;;;42.45;20.92;;;;;;;;;;5095480;28;20712;-66
2022/12/15 01:29:46;;;;;;;39.50;19.52;;;;;;;;;;5095344;28;20311;-65
2022/12/15 01:32:13;;;;;;;39.88;20.48;;;;;;;;;;5095331;28;20283;-65
2022/12/15 01:34:41;;;;;;;42.88;23.75;;;;;;;;;;5095221;28;20608;-66
2022/12/15 01:37:08;;;;;;;36.28;20.00;;;;;;;;;;5095069;28;20193;-65
2022/12/15 01:42:20;;;;;;;39.28;20.90;;;;;;;;;;5095166;28;20242;-65
2022/12/15 01:44:48;;;;;;;36.20;20.20;;;;;;;;;;5095089;28;20542;-66
2022/12/15 01:47:15;;;;;;;33.03;18.05;;;;;;;;;;5094786;28;20213;-65
2022/12/15 01:49:46;;;;;;;36.22;19.80;;;;;;;;;;5094786;28;20219;-65
2022/12/15 01:52:15;;;;;;;36.72;18.65;;;;;;;;;;5094872;28;20185;-66
2022/12/15 01:54:43;;;;;;;30.35;18.90;;;;;;;;;;5095010;28;20551;-66
2022/12/15 01:57:13;;;;;;;39.13;20.60;;;;;;;;;;5094775;28;20185;-65
2022/12/15 01:59:45;;;;;;;34.13;18.50;;;;;;;;;;5094765;28;20197;-65
2022/12/15 02:02:13;;;;;;;37.60;20.17;;;;;;;;;;5094582;28;20225;-66
2022/12/15 02:04:40;;;;;;;39.88;21.50;;;;;;;;;;5094815;28;20185;-65
2022/12/15 02:07:11;;;;;;;31.58;18.98;;;;;;;;;;5094913;28;20189;-65
2022/12/15 02:09:38;;;;;;;41.20;20.98;;;;;;;;;;5094625;28;20231;-66
2022/12/15 02:12:09;;;;;;;36.22;21.20;;;;;;;;;;5094483;28;20292;-66
2022/12/15 02:14:43;;;;;;;33.80;19.60;;;;;;;;;;5094399;28;20287;-65
2022/12/15 02:17:15;;;;;;;34.40;19.02;;;;;;;;;;5094493;28;20572;-65
2022/12/15 02:19:53;;;;;;;43.28;21.98;;;;;;;;;;5094503;28;20276;-65
2022/12/15 02:22:27;;;;;;;36.55;22.00;;;;;;;;;;5094333;28;20189;-65
2022/12/15 02:25:03;;;;;;;47.45;21.33;;;;;;;;;;5094251;28;20185;-65
2022/12/15 02:27:46;;;;;;;43.97;22.90;;;;;;;;;;5094352;28;20195;-65
2022/12/15 02:30:17;;;;;;;35.83;21.00;;;;;;;;;;5094215;28;20600;-65
2022/12/15 02:32:48;;;;;;;47.30;21.58;;;;;;;;;;5094598;28;20242;-65
2022/12/15 02:35:17;;;;;;;36.38;21.25;;;;;;;;;;5094084;28;20189;-65
2022/12/15 02:37:45;;;;;;;33.90;20.35;;;;;;;;;;5093187;28;20196;-65
2022/12/15 02:40:12;;;;;;;42.03;20.75;;;;;;;;;;5094204;28;20597;-65
2022/12/15 02:42:42;;;;;;;44.95;21.65;;;;;;;;;;5094033;28;20197;-65
2022/12/15 02:45:10;;;;;;;36.38;20.15;;;;;;;;;;5093928;28;20199;-65
2022/12/15 02:47:45;;;;;;;41.88;20.42;;;;;;;;;;5093771;28;20217;-65
2022/12/15 02:50:20;;;;;;;36.33;19.15;;;;;;;;;;5093709;28;20553;-65
2022/12/15 02:52:52;;;;;;;42.08;20.67;;;;;;;;;;5093869;28;20197;-65
2022/12/15 02:55:23;;;;;;;34.08;19.27;;;;;;;;;;5093855;28;20261;-66
2022/12/15 02:57:53;;;;;;;36.45;20.45;;;;;;;;;;5093580;28;20287;-66
2022/12/15 03:00:21;;;;;;;45.70;22.35;;;;;;;;;;5093574;28;20276;-65
2022/12/15 03:02:51;;;;;;;38.65;19.13;;;;;;;;;;5093708;28;20196;-65
2022/12/15 03:05:19;;;;;;;42.75;20.55;;;;;;;;;;5093675;28;20624;-66
2022/12/15 03:07:46;;;;;;;36.75;21.02;;;;;;;;;;5093486;28;20271;-65
2022/12/15 03:10:14;;;;;;;36.08;21.45;;;;;;;;;;5093549;28;20300;-66
2022/12/15 03:12:41;;;;;;;46.17;20.40;;;;;;;;;;5093480;28;20189;-65
2022/12/15 03:15:08;;;;;;;35.63;20.17;;;;;;;;;;5093305;28;20279;-66
2022/12/15 03:17:37;;;;;;;44.33;22.30;;;;;;;;;;5093467;28;20200;-65
2022/12/15 03:20:07;;;;;;;42.30;21.00;;;;;;;;;;5093515;28;20193;-65
2022/12/15 03:22:34;;;;;;;41.05;23.73;;;;;;;;;;5093311;28;20242;-65
2022/12/15 03:25:01;;;;;;;41.78;20.40;;;;;;;;;;5093286;28;20266;-66
2022/12/15 03:27:28;;;;;;;42.83;21.08;;;;;;;;;;5093005;28;20280;-65
2022/12/15 03:29:55;;;;;;;37.83;20.15;;;;;;;;;;5093332;28;20192;-65
2022/12/15 03:32:22;;;;;;;33.33;17.98;;;;;;;;;;5093570;28;20185;-65
2022/12/15 03:34:49;;;;;;;62.70;28.20;;;;;;;;;;5093185;28;20311;-65
2022/12/15 03:37:17;;;;;;;57.25;27.13;;;;;;;;;;5093048;28;20552;-66
2022/12/15 03:39:44;;;;;;;49.72;24.80;;;;;;;;;;5093040;28;20216;-65
2022/12/15 03:42:11;;;;;;;46.55;22.75;;;;;;;;;;5092946;28;20280;-65
2022/12/15 03:44:38;;;;;;;45.30;22.95;;;;;;;;;;5093157;28;20275;-65
2022/12/15 03:47:05;;;;;;;41.60;22.25;;;;;;;;;;5092800;28;20304;-65
2022/12/15 03:49:32;;;;;;;39.50;21.20;;;;;;;;;;5096462;28;20221;-65
2022/12/15 03:51:59;;;;;;;41.95;20.52;;;;;;;;;;5097186;28;20197;-65
2022/12/15 03:54:27;;;;;;;39.03;22.10;;;;;;;;;;5097098;28;20275;-65
2022/12/15 03:56:54;;;;;;;51.00;23.70;;;;;;;;;;5097274;28;20284;-65
2022/12/15 03:59:21;;;;;;;37.15;21.40;;;;;;;;;;5097206;28;20645;-65
2022/12/15 04:01:48;;;;;;;41.38;19.25;;;;;;;;;;5097067;28;20315;-65
2022/12/15 04:04:15;;;;;;;41.80;20.08;;;;;;;;;;5096986;28;20193;-65
2022/12/15 04:06:42;;;;;;;36.60;19.00;;;;;;;;;;5096794;28;20188;-65
2022/12/15 04:09:09;;;;;;;39.05;20.27;;;;;;;;;;5096610;28;20193;-65
2022/12/15 04:11:37;;;;;;;51.40;20.67;;;;;;;;;;5096961;28;20284;-65
2022/12/15 04:14:04;;;;;;;45.22;20.98;;;;;;;;;;5097080;28;20195;-65
2022/12/15 04:16:31;;;;;;;42.25;20.85;;;;;;;;;;5096826;28;20275;-65
2022/12/15 04:21:43;;;;;;;41.85;20.67;;;;;;;;;;5096589;28;20220;-65
2022/12/15 05:32:54;;;;;;;34.80;19.05;;;;;;;;;;5095321;28;20188;-65
2022/12/15 05:35:21;;;;;;;40.30;21.13;;;;;;;;;;5095199;28;20188;-65
2022/12/15 05:37:48;;;;;;;36.95;19.60;;;;;;;;;;5095166;28;20225;-66
2022/12/15 05:40:15;;;;;;;36.72;20.70;;;;;;;;;;5095214;28;20662;-65
2022/12/15 05:42:42;;;;;;;35.33;19.45;;;;;;;;;;5094982;28;20280;-65
2022/12/15 05:45:10;;;;;;;36.47;19.33;;;;;;;;;;5094931;28;20652;-65
2022/12/15 05:47:36;;;;;;;40.40;20.20;;;;;;;;;;5094996;28;20221;-65
2022/12/15 05:50:05;;;;;;;43.80;21.90;;;;;;;;;;5094816;28;20195;-65
2022/12/15 05:52:32;;;;;;;47.63;21.40;;;;;;;;;;5094923;28;20601;-65
2022/12/15 05:54:59;;;;;;;43.95;20.20;;;;;;;;;;5094849;28;20272;-65
2022/12/15 05:57:26;;;;;;;43.15;21.85;;;;;;;;;;5094639;28;20189;-65
2022/12/15 05:59:53;;;;;;;40.20;21.63;;;;;;;;;;5094829;28;20639;-65
2022/12/15 06:02:20;;;;;;;42.83;22.20;;;;;;;;;;5094771;28;20652;-65
2022/12/15 06:04:47;;;;;;;47.88;21.80;;;;;;;;;;5095076;28;20540;-65
2022/12/15 06:07:15;;;;;;;49.55;23.15;;;;;;;;;;5094584;28;20195;-65
2022/12/15 06:09:42;;;;;;;46.97;24.83;;;;;;;;;;5094839;28;20279;-65
2022/12/15 06:12:09;;;;;;;40.97;22.10;;;;;;;;;;5093510;28;20280;-66
2022/12/15 06:14:36;;;;;;;46.65;23.67;;;;;;;;;;5094618;28;20217;-66
2022/12/15 06:17:03;;;;;;;41.92;22.75;;;;;;;;;;5094459;28;20196;-65
2022/12/15 06:19:30;;;;;;;53.72;25.92;;;;;;;;;;5094394;28;20428;-66
2022/12/15 06:21:57;;;;;;;47.55;24.08;;;;;;;;;;5094075;28;20636;-66
2022/12/15 06:24:26;;;;;;;56.42;25.80;;;;;;;;;;5094121;28;20216;-66
2022/12/15 06:26:53;;;;;;;44.10;23.30;;;;;;;;;;5094361;28;20189;-66
2022/12/15 06:29:19;;;;;;;45.90;24.23;;;;;;;;;;5093926;28;20256;-66
2022/12/15 06:31:46;;;;;;;45.53;23.45;;;;;;;;;;5094068;28;20250;-66
2022/12/15 06:34:14;;;;;;;43.47;22.95;;;;;;;;;;5094105;28;20626;-66
2022/12/15 06:36:41;;;;;;;49.30;24.45;;;;;;;;;;5094083;28;20567;-65
2022/12/15 06:39:09;;;;;;;48.78;22.95;;;;;;;;;;5093843;28;20195;-65
2022/12/15 06:41:37;;;;;;;43.92;21.05;;;;;;;;;;5093950;28;20244;-66
2022/12/15 06:44:04;;;;;;;42.22;21.27;;;;;;;;;;5093843;28;20192;-66
2022/12/15 06:46:33;;;;;;;48.47;23.08;;;;;;;;;;5093660;28;20223;-66
2022/12/15 06:49:00;;;;;;;40.55;21.42;;;;;;;;;;5093617;28;20644;-65
2022/12/15 06:51:28;;;;;;;40.90;22.00;;;;;;;;;;5093700;28;20280;-66
2022/12/15 06:53:55;;;;;;;41.88;21.50;;;;;;;;;;5093516;28;20276;-65
2022/12/15 06:56:22;;;;;;;41.28;21.88;;;;;;;;;;5093583;28;20201;-65
2022/12/15 06:58:51;;;;;;;40.00;21.05;;;;;;;;;;5093505;28;20195;-66
2022/12/15 07:01:18;;;;;;;34.65;19.77;;;;;;;;;;5093465;28;20368;-66
2022/12/15 07:03:46;;;;;;;42.20;22.55;;;;;;;;;;5093458;28;20189;-65
2022/12/15 07:06:14;;;;;;;43.80;22.70;;;;;;;;;;5093145;28;20588;-65
2022/12/15 07:08:41;;;;;;;43.90;21.52;;;;;;;;;;5093421;28;20189;-65
2022/12/15 07:11:09;;;;;;;39.83;20.65;;;;;;;;;;5093484;28;20626;-66
2022/12/15 07:13:36;;;;;;;34.22;19.30;;;;;;;;;;5093211;28;20192;-66
2022/12/15 07:16:06;;;;;;;37.83;20.77;;;;;;;;;;5093381;28;20195;-65
2022/12/15 07:18:32;;;;;;;34.35;20.20;;;;;;;;;;5093528;28;20181;-65
2022/12/15 07:21:03;;;;;;;37.92;19.92;;;;;;;;;;5093036;28;20220;-65
2022/12/15 07:23:30;;;;;;;39.33;21.27;;;;;;;;;;5092870;28;20725;-65
2022/12/15 07:25:57;;;;;;;38.83;19.60;;;;;;;;;;5093327;28;20196;-65
2022/12/15 07:28:24;;;;;;;34.70;19.65;;;;;;;;;;5093164;28;20265;-66
2022/12/15 07:30:51;;;;;;;39.42;20.75;;;;;;;;;;5092956;28;20246;-66
2022/12/15 07:33:19;;;;;;;44.08;21.40;;;;;;;;;;5092951;28;20652;-65
2022/12/15 07:35:53;;;;;;;40.60;19.70;;;;;;;;;;5093154;28;20283;-65
2022/12/15 07:38:20;;;;;;;40.92;20.17;;;;;;;;;;5093007;28;20197;-65
2022/12/15 07:40:47;;;;;;;34.40;21.75;;;;;;;;;;5092909;28;20217;-66
2022/12/15 07:43:14;;;;;;;44.28;22.02;;;;;;;;;;5092850;28;20185;-65
2022/12/15 07:45:41;;;;;;;36.17;22.63;;;;;;;;;;5092584;28;20190;-66
2022/12/15 07:48:08;;;;;;;43.70;20.90;;;;;;;;;;5092639;28;20281;-65
2022/12/15 07:50:38;;;;;;;40.28;22.02;;;;;;;;;;5092842;28;20544;-65
2022/12/15 07:53:05;;;;;;;31.83;20.40;;;;;;;;;;5093020;28;20549;-65
2022/12/15 07:55:32;;;;;;;34.05;19.13;;;;;;;;;;5092840;28;20195;-66
2022/12/15 07:57:59;;;;;;;33.35;19.25;;;;;;;;;;5092634;28;20228;-65
2022/12/15 08:00:27;;;;;;;34.58;20.63;;;;;;;;;;5092689;28;20220;-65
2022/12/15 08:02:54;;;;;;;39.60;19.33;;;;;;;;;;5092727;28;20254;-65
2022/12/15 08:05:21;;;;;;;38.97;20.33;;;;;;;;;;5092762;28;20575;-65
2022/12/15 08:07:49;;;;;;;33.45;20.55;;;;;;;;;;5092620;28;20193;-66
2022/12/15 08:10:16;;;;;;;34.28;20.10;;;;;;;;;;5097248;28;20189;-66
2022/12/15 08:12:43;;;;;;;39.05;20.25;;;;;;;;;;5098667;28;20193;-66
2022/12/15 08:15:11;;;;;;;37.95;21.10;;;;;;;;;;5092105;28;20201;-66
2022/12/15 08:17:39;;;;;;;29.98;18.02;;;;;;;;;;5092640;28;20200;-61
2022/12/15 08:20:06;;;;;;;39.13;20.58;;;;;;;;;;5092565;28;20228;-61
2022/12/15 08:22:33;;;;;;;32.60;20.52;;;;;;;;;;5092124;28;20213;-61
2022/12/15 08:25:02;;;;;;;36.03;20.90;;;;;;;;;;5092399;28;20189;-61
2022/12/15 08:27:29;;;;;;;38.55;19.42;;;;;;;;;;5092363;28;20197;-60
2022/12/15 08:29:56;;;;;;;33.42;20.83;;;;;;;;;;5092589;28;20235;-60
2022/12/15 08:32:23;;;;;;;39.45;20.33;;;;;;;;;;5094854;28;20186;-60
2022/12/15 08:34:50;;;;;;;36.58;21.55;;;;;;;;;;5098232;28;20281;-61
2022/12/15 08:37:17;;;;;;;44.53;26.40;;;;;;;;;;5095558;28;20808;-61
2022/12/15 08:39:44;;;;;;;38.60;22.00;;;;;;;;;;5096156;28;20590;-61
2022/12/15 08:42:12;;;;;;;37.67;21.88;;;;;;;;;;5096024;28;20715;-68
2022/12/15 08:44:39;;;;;;;39.50;22.00;;;;;;;;;;5096291;28;20195;-67
2022/12/15 08:47:07;;;;;;;44.53;22.30;;;;;;;;;;5095869;28;20223;-59
2022/12/15 08:49:34;;;;;;;39.78;20.60;;;;;;;;;;5104594;28;20189;-61
2022/12/15 08:52:01;;;;;;;38.92;22.08;;;;;;;;;;5113431;28;20551;-62
2022/12/15 08:54:28;;;;;;;45.13;23.98;;;;;;;;;;5116062;28;20279;-63
2022/12/15 08:56:55;;;;;;;39.67;22.92;;;;;;;;;;5116311;28;20220;-64
2022/12/15 08:59:23;;;;;;;38.97;21.60;;;;;;;;;;5116493;28;20184;-64
2022/12/15 09:01:50;;;;;;;34.95;21.95;;;;;;;;;;5116204;28;20216;-64
2022/12/15 09:04:18;;;;;;;38.90;21.73;;;;;;;;;;5116317;28;20638;-64
2022/12/15 09:06:45;;;;;;;35.42;21.35;;;;;;;;;;5116038;28;20562;-64
2022/12/15 09:09:13;;;;;;;44.38;25.42;;;;;;;;;;5115239;28;20443;-64
2022/12/15 09:11:40;;;;;;;44.92;25.63;;;;;;;;;;5115955;28;20590;-64
2022/12/15 09:14:07;;;;;;;36.88;22.05;;;;;;;;;;5115886;28;20184;-64
2022/12/15 09:16:36;;;;;;;36.45;21.42;;;;;;;;;;5116059;28;20231;-64
2022/12/15 09:19:03;;;;;;;36.72;21.60;;;;;;;;;;5115914;28;20295;-64
2022/12/15 09:21:30;;;;;;;37.83;21.88;;;;;;;;;;5115600;28;20348;-64
2022/12/15 09:24:00;;;;;;;38.20;21.65;;;;;;;;;;5115956;28;20448;-64
2022/12/15 09:26:28;;;;;;;39.85;21.10;;;;;;;;;;5116147;28;20195;-63
2022/12/15 09:28:56;;;;;;;38.75;23.40;;;;;;;;;;5115760;28;20276;-64
2022/12/15 09:31:24;;;;;;;43.33;22.38;;;;;;;;;;5115693;28;20283;-64
2022/12/15 09:33:54;;;;;;;44.20;24.30;;;;;;;;;;5115426;28;20191;-64
2022/12/15 09:36:21;;;;;;;33.33;21.20;;;;;;;;;;5115531;28;20652;-64
2022/12/15 09:38:48;;;;;;;39.70;22.40;;;;;;;;;;5115822;28;20203;-64
2022/12/15 09:41:21;;;;;;;44.35;23.55;;;;;;;;;;5115557;28;20550;-64
2022/12/15 09:43:51;;;;;;;37.65;22.15;;;;;;;;;;5115331;28;20199;-64
2022/12/15 09:46:23;;;;;;;34.90;19.30;;;;;;;;;;5115271;28;20220;-64
2022/12/15 09:48:51;;;;;;;42.53;23.70;;;;;;;;;;5115210;28;20196;-64
2022/12/15 09:51:21;;;;;;;41.30;21.90;;;;;;;;;;5115393;28;20546;-64
2022/12/15 09:53:48;;;;;;;39.30;21.25;;;;;;;;;;5115287;28;20231;-64
2022/12/15 09:56:18;;;;;;;38.58;22.35;;;;;;;;;;5115231;28;20185;-64
2022/12/15 09:58:52;;;;;;;41.50;22.48;;;;;;;;;;5115118;28;20188;-64
2022/12/15 10:01:24;;;;;;;39.03;21.25;;;;;;;;;;5114936;28;20216;-64
2022/12/15 10:03:55;;;;;;;47.85;22.35;;;;;;;;;;5115190;28;20214;-64
2022/12/15 10:06:27;;;;;;;39.53;21.63;;;;;;;;;;5115082;28;20188;-64
2022/12/15 10:08:55;;;;;;;38.80;21.38;;;;;;;;;;5115075;28;20275;-64
2022/12/15 10:11:25;;;;;;;35.17;21.15;;;;;;;;;;5114929;28;20193;-63
2022/12/15 10:13:54;;;;;;;43.70;21.98;;;;;;;;;;5115026;28;20188;-64
2022/12/15 10:16:24;;;;;;;46.50;23.88;;;;;;;;;;5114962;28;20184;-64
2022/12/15 10:18:55;;;;;;;44.10;22.73;;;;;;;;;;5114651;28;20279;-64
2022/12/15 10:21:23;;;;;;;39.92;22.33;;;;;;;;;;5114634;28;20200;-64
2022/12/15 10:23:52;;;;;;;35.95;22.30;;;;;;;;;;5114647;28;20279;-65
2022/12/15 10:26:22;;;;;;;38.53;22.85;;;;;;;;;;5114497;28;20283;-64
2022/12/15 10:29:01;;;;;;;34.83;22.50;;;;;;;;;;5114553;28;20188;-64
2022/12/15 10:31:33;;;;;;;34.80;22.13;;;;;;;;;;5114435;28;20713;-65
2022/12/15 10:34:06;;;;;;;34.85;20.50;;;;;;;;;;5114439;28;20189;-65
2022/12/15 10:36:33;;;;;;;40.03;20.67;;;;;;;;;;5114661;28;20209;-64
2022/12/15 10:39:01;;;;;;;38.13;21.30;;;;;;;;;;5114270;28;20196;-64
2022/12/15 10:41:32;;;;;;;38.90;22.15;;;;;;;;;;5114179;28;20192;-64
2022/12/15 10:44:01;;;;;;;45.70;22.90;;;;;;;;;;5114384;28;20279;-64
2022/12/15 10:46:29;;;;;;;40.08;22.42;;;;;;;;;;5114198;28;20227;-64
2022/12/15 10:48:57;;;;;;;38.10;24.13;;;;;;;;;;5114086;28;20192;-64
2022/12/15 10:51:27;;;;;;;41.15;22.35;;;;;;;;;;5102821;28;20650;-64
2022/12/15 10:53:55;;;;;;;47.08;25.52;;;;;;;;;;5093869;28;20199;-64
2022/12/15 10:56:25;;;;;;;40.17;23.17;;;;;;;;;;5093742;28;20272;-64
2022/12/15 10:58:53;;;;;;;39.47;23.15;;;;;;;;;;5093163;28;20201;-64
2022/12/15 11:01:22;;;;;;;47.88;24.45;;;;;;;;;;5093469;28;20713;-64
2022/12/15 11:03:51;;;;;;;44.67;22.63;;;;;;;;;;5093075;28;20278;-65
2022/12/15 11:06:20;;;;;;;41.58;21.13;;;;;;;;;;5093629;28;20562;-66
2022/12/15 11:08:48;;;;;;;34.00;21.35;;;;;;;;;;5093331;28;20660;-65
2022/12/15 11:14:13;;;;;;;38.85;20.65;;;;;;;;;;5093205;28;20196;-62
2022/12/15 11:16:46;;;;;;;47.63;22.35;;;;;;;;;;5093333;28;20563;-59
2022/12/15 11:19:14;;;;;;;38.33;22.08;;;;;;;;;;5092827;28;20652;-58
2022/12/15 11:21:43;;;;;;;35.88;22.25;;;;;;;;;;5093268;28;20195;-60
2022/12/15 11:24:12;;;;;;;38.50;22.75;;;;;;;;;;5093126;28;20193;-57
2022/12/15 11:26:51;;;;;;;42.00;23.70;;;;;;;;;;5093058;28;20193;-59
2022/12/15 11:29:25;;;;;;;37.22;21.52;;;;;;;;;;5093177;28;20188;-66
2022/12/15 11:31:52;;;;;;;35.88;20.85;;;;;;;;;;5092795;28;20181;-70
2022/12/15 11:34:20;;;;;;;36.58;21.58;;;;;;;;;;5092898;28;20289;-61
2022/12/15 11:36:54;;;;;;;37.17;22.10;;;;;;;;;;5093089;28;20339;-61
2022/12/15 11:39:25;;;;;;;32.60;20.77;;;;;;;;;;5093261;28;20545;-63
2022/12/15 11:41:58;;;;;;;34.70;20.05;;;;;;;;;;5093015;28;20201;-65
2022/12/15 11:44:27;;;;;;;39.63;21.75;;;;;;;;;;5092969;28;20244;-62
2022/12/15 11:47:02;;;;;;;36.47;20.20;;;;;;;;;;5093060;28;20640;-64
2022/12/15 11:49:48;;;;;;;35.25;21.67;;;;;;;;;;5092756;28;20196;-62
2022/12/15 11:52:19;;;;;;;31.52;21.00;;;;;;;;;;5092958;28;20192;-61
2022/12/15 11:54:49;;;;;;;36.40;21.13;;;;;;;;;;5092917;28;20193;-64
2022/12/15 11:57:32;;;;;;;32.92;20.33;;;;;;;;;;5092889;28;20661;-61
2022/12/15 12:00:02;;;;;;;30.08;20.05;;;;;;;;;;5105818;28;20191;-62
2022/12/15 12:02:38;;;;;;;35.60;20.65;;;;;;;;;;5101785;28;20569;-63
2022/12/15 12:05:16;;;;;;;33.85;20.20;;;;;;;;;;5100476;28;20179;-68
2022/12/15 12:07:45;;;;;;;32.63;20.55;;;;;;;;;;5093609;28;20234;-70
2022/12/15 12:10:16;;;;;;;28.30;18.40;;;;;;;;;;5094564;28;20188;-69
2022/12/15 12:12:49;;;;;;;30.90;17.80;;;;;;;;;;5096742;28;20284;-64
2022/12/15 12:15:24;;;;;;;32.63;20.02;;;;;;;;;;5103114;28;20184;-62
2022/12/15 12:17:53;;;;;;;25.77;17.73;;;;;;;;;;5113842;28;20230;-63
2022/12/15 12:20:21;;;;;;;29.63;18.48;;;;;;;;;;5116800;28;20195;-63
2022/12/15 12:22:53;;;;;;;27.30;17.33;;;;;;;;;;5116707;28;20683;-62
2022/12/15 12:25:22;;;;;;;30.48;18.35;;;;;;;;;;5113765;28;20185;-69
2022/12/15 12:27:54;;;;;;;28.05;17.58;;;;;;;;;;5102468;28;20277;-65
2022/12/15 12:30:23;;;;;;;29.05;17.67;;;;;;;;;;5096562;28;20220;-80
2022/12/15 12:32:54;;;;;;;34.15;18.55;;;;;;;;;;5096184;28;20224;-62
2022/12/15 12:35:23;;;;;;;29.80;18.35;;;;;;;;;;5106528;28;20188;-62
2022/12/15 12:37:52;;;;;;;29.42;18.25;;;;;;;;;;5107859;28;20181;-58
2022/12/15 12:40:20;;;;;;;27.65;17.35;;;;;;;;;;5116268;28;20196;-64
2022/12/15 12:42:52;;;;;;;28.45;18.88;;;;;;;;;;5116586;28;20208;-57
2022/12/15 12:45:21;;;;;;;28.50;17.65;;;;;;;;;;5116110;28;20199;-59
2022/12/15 12:47:51;;;;;;;31.52;18.80;;;;;;;;;;5116103;28;20220;-64
2022/12/15 12:50:20;;;;;;;31.25;18.58;;;;;;;;;;5133766;27;20183;-64
2022/12/15 12:52:49;;;;;;;32.90;19.20;;;;;;;;;;5137266;27;20689;-64
2022/12/15 12:55:24;;;;;;;30.17;19.60;;;;;;;;;;5137076;27;20194;-65
2022/12/15 12:57:52;;;;;;;32.10;24.10;;;;;;;;;;5111191;27;20193;-64
2022/12/15 13:00:22;;;;;;;32.55;19.42;;;;;;;;;;5099237;28;20283;-66
2022/12/15 13:03:04;;;;;;;33.55;21.52;;;;;;;;;;5095747;28;20216;-63
2022/12/15 13:05:32;;;;;;;35.10;20.40;;;;;;;;;;5095968;28;20197;-63
2022/12/15 13:08:18;;;;;;;32.30;19.73;;;;;;;;;;5095789;28;20285;-69
2022/12/15 13:10:46;;;;;;;27.63;18.60;;;;;;;;;;5097712;28;20187;-69
2022/12/15 13:13:34;;;;;;;34.28;20.60;;;;;;;;;;5113144;28;20263;-69
2022/12/15 13:16:06;;;;;;;34.08;20.25;;;;;;;;;;5106845;28;20596;-65
2022/12/15 13:18:55;;;;;;;35.55;21.20;;;;;;;;;;5096805;28;20185;-61
2022/12/15 13:21:37;;;;;;;30.38;20.70;;;;;;;;;;5094354;28;20193;-61
2022/12/15 13:24:04;;;;;;;28.15;19.45;;;;;;;;;;5094642;28;20247;-73
2022/12/15 13:26:32;;;;;;;29.55;20.05;;;;;;;;;;5100998;28;20616;-70
2022/12/15 13:28:59;;;;;;;29.95;20.15;;;;;;;;;;5095122;28;20197;-61
2022/12/15 13:31:40;;;;;;;30.23;19.50;;;;;;;;;;5094978;28;20556;-60
2022/12/15 13:34:15;;;;;;;37.58;21.85;;;;;;;;;;5108611;28;20559;-63
2022/12/15 13:36:52;;;;;;;34.30;21.60;;;;;;;;;;5115748;28;20223;-69
2022/12/15 13:39:33;;;;;;;32.35;19.60;;;;;;;;;;5115496;28;20280;-64
2022/12/15 13:42:19;;;;;;;28.88;19.52;;;;;;;;;;5115338;28;20275;-62
2022/12/15 13:44:50;;;;;;;29.23;18.85;;;;;;;;;;5114691;28;20189;-65
2022/12/15 13:47:21;;;;;;;33.65;20.23;;;;;;;;;;5110801;28;20674;-68
2022/12/15 13:49:49;;;;;;;32.13;20.30;;;;;;;;;;5115463;28;20198;-65
2022/12/15 13:52:23;;;;;;;30.15;20.25;;;;;;;;;;5115314;28;20279;-69
2022/12/15 13:54:52;;;;;;;31.50;20.75;;;;;;;;;;5115344;28;20851;-63
2022/12/15 13:57:20;;;;;;;39.45;22.10;;;;;;;;;;5111900;28;20238;-65
2022/12/15 13:59:47;;;;;;;36.40;22.45;;;;;;;;;;5112081;28;20180;-61
2022/12/15 14:02:26;;;;;;;32.72;20.55;;;;;;;;;;5115085;28;20188;-65
2022/12/15 14:05:07;;;;;;;32.28;20.13;;;;;;;;;;5114927;28;20192;-69
2022/12/15 14:07:35;;;;;;;33.30;21.05;;;;;;;;;;5114874;28;20192;-69
2022/12/15 14:10:02;;;;;;;30.60;20.70;;;;;;;;;;5114557;28;20283;-69
2022/12/15 14:12:29;;;;;;;37.08;22.17;;;;;;;;;;5114926;28;20196;-68
2022/12/15 14:14:56;;;;;;;36.17;23.02;;;;;;;;;;5114977;28;20221;-69
2022/12/15 14:17:23;;;;;;;35.65;20.95;;;;;;;;;;5114889;28;20715;-68
2022/12/15 14:19:52;;;;;;;35.05;21.58;;;;;;;;;;5115022;28;20417;-69
2022/12/15 14:22:26;;;;;;;31.75;20.63;;;;;;;;;;5114938;28;20281;-69
2022/12/15 14:24:58;;;;;;;33.15;20.83;;;;;;;;;;5114602;28;20705;-69
2022/12/15 14:27:26;;;;;;;39.55;22.02;;;;;;;;;;5114620;28;20199;-69
2022/12/15 14:30:08;;;;;;;33.00;20.85;;;;;;;;;;5114570;28;20545;-68
2022/12/15 14:32:35;;;;;;;35.35;20.83;;;;;;;;;;5113864;28;20291;-69
2022/12/15 14:35:04;;;;;;;32.33;21.30;;;;;;;;;;5114555;28;20192;-69
2022/12/15 14:37:31;;;;;;;34.25;21.77;;;;;;;;;;5114534;28;20194;-69
2022/12/15 14:39:58;;;;;;;39.58;23.38;;;;;;;;;;5114443;28;20594;-69
2022/12/15 14:42:26;;;;;;;32.10;21.00;;;;;;;;;;5114095;28;20227;-68
2022/12/15 14:44:54;;;;;;;32.88;20.23;;;;;;;;;;5114408;28;20226;-69
2022/12/15 14:47:23;;;;;;;29.58;19.48;;;;;;;;;;5114044;28;20238;-68
2022/12/15 14:49:50;;;;;;;35.30;20.98;;;;;;;;;;5114271;28;20196;-69
2022/12/15 14:52:26;;;;;;;33.90;20.88;;;;;;;;;;5114167;28;20191;-69
2022/12/15 14:54:54;;;;;;;32.50;18.83;;;;;;;;;;5114049;28;20191;-69
2022/12/15 14:57:22;;;;;;;34.95;21.80;;;;;;;;;;5114328;28;20299;-69
2022/12/15 14:59:50;;;;;;;30.25;20.27;;;;;;;;;;5114216;28;20195;-70
2022/12/15 15:02:21;;;;;;;33.53;21.65;;;;;;;;;;5113963;28;20192;-69
2022/12/15 15:04:56;;;;;;;35.53;21.08;;;;;;;;;;5113914;28;20311;-69
2022/12/15 15:07:24;;;;;;;34.60;21.73;;;;;;;;;;5113895;28;20198;-69
2022/12/15 15:09:51;;;;;;;34.83;20.48;;;;;;;;;;5113993;28;20283;-68
2022/12/15 15:12:19;;;;;;;32.25;20.02;;;;;;;;;;5114140;28;20278;-69
2022/12/15 15:14:48;;;;;;;29.67;19.08;;;;;;;;;;5113962;28;20555;-69
2022/12/15 15:17:18;;;;;;;28.95;18.38;;;;;;;;;;5114205;28;20547;-69
2022/12/15 15:19:47;;;;;;;32.65;19.30;;;;;;;;;;5113731;28;20234;-69
2022/12/15 15:22:25;;;;;;;33.30;20.33;;;;;;;;;;5113596;28;20275;-69
2022/12/15 15:24:53;;;;;;;31.45;18.58;;;;;;;;;;5113597;28;20220;-69
2022/12/15 15:27:24;;;;;;;31.48;18.23;;;;;;;;;;5113665;28;20191;-69
2022/12/15 15:29:51;;;;;;;29.10;18.55;;;;;;;;;;5113719;28;20184;-69
2022/12/15 15:32:20;;;;;;;33.55;20.02;;;;;;;;;;5113574;28;20623;-69
2022/12/15 15:34:47;;;;;;;28.88;19.83;;;;;;;;;;5113593;28;20200;-69
2022/12/15 15:37:17;;;;;;;33.25;21.25;;;;;;;;;;5113648;28;20274;-69
2022/12/15 15:39:44;;;;;;;36.08;21.35;;;;;;;;;;5113839;28;20287;-69
2022/12/15 15:42:13;;;;;;;35.53;20.92;;;;;;;;;;5113430;28;20193;-69
2022/12/15 15:44:40;;;;;;;32.50;20.45;;;;;;;;;;5113091;28;20212;-69
2022/12/15 15:47:07;;;;;;;38.22;22.60;;;;;;;;;;5113125;28;20227;-69
2022/12/15 15:49:34;;;;;;;38.00;22.75;;;;;;;;;;5113543;28;20283;-69
2022/12/15 15:52:01;;;;;;;33.97;21.50;;;;;;;;;;5113444;28;20229;-69
2022/12/15 15:54:32;;;;;;;38.13;20.92;;;;;;;;;;5113364;28;20279;-69
2022/12/15 15:56:59;;;;;;;34.53;21.75;;;;;;;;;;5113332;28;20238;-68
2022/12/15 15:59:27;;;;;;;35.10;20.45;;;;;;;;;;5113037;28;20279;-69
2022/12/15 16:01:56;;;;;;;39.17;23.52;;;;;;;;;;5113441;28;20196;-69
2022/12/15 16:04:23;;;;;;;42.13;24.92;;;;;;;;;;5113220;28;20227;-69
2022/12/15 16:06:51;;;;;;;37.22;23.05;;;;;;;;;;5113241;28;20192;-68
2022/12/15 16:09:18;;;;;;;38.10;25.52;;;;;;;;;;5113080;28;20188;-69
2022/12/15 16:11:45;;;;;;;40.33;22.90;;;;;;;;;;5113149;28;20185;-69
2022/12/15 16:14:13;;;;;;;32.22;20.05;;;;;;;;;;5113026;28;20189;-69
2022/12/15 16:16:41;;;;;;;32.58;19.25;;;;;;;;;;5113308;28;20654;-69
2022/12/15 16:19:10;;;;;;;32.30;19.65;;;;;;;;;;5113202;28;20188;-68
2022/12/15 16:21:38;;;;;;;31.48;19.45;;;;;;;;;;5112834;28;20716;-69
2022/12/15 16:24:08;;;;;;;33.72;19.85;;;;;;;;;;5112922;28;20247;-69
2022/12/15 16:26:36;;;;;;;30.65;19.30;;;;;;;;;;5112847;28;20192;-69
2022/12/15 16:29:04;;;;;;;32.38;19.02;;;;;;;;;;5112906;28;20193;-69
2022/12/15 16:31:31;;;;;;;33.10;21.10;;;;;;;;;;5112825;28;20191;-69
2022/12/15 16:34:00;;;;;;;30.45;19.42;;;;;;;;;;5113041;28;20222;-68
2022/12/15 16:36:27;;;;;;;34.28;20.48;;;;;;;;;;5112983;28;20279;-69
2022/12/15 16:38:54;;;;;;;32.95;20.02;;;;;;;;;;5112877;28;20716;-69
2022/12/15 16:41:22;;;;;;;25.08;19.05;;;;;;;;;;5112697;28;20220;-69
2022/12/15 16:43:49;;;;;;;29.30;20.17;;;;;;;;;;5112830;28;20227;-69
2022/12/15 16:46:16;;;;;;;31.35;20.52;;;;;;;;;;5112737;28;20316;-68
2022/12/15 16:48:43;;;;;;;28.23;19.42;;;;;;;;;;5112769;28;20439;-68
2022/12/15 16:51:25;;;;;;;28.95;19.55;;;;;;;;;;5112755;28;20485;-69
2022/12/15 16:53:52;;;;;;;29.20;19.33;;;;;;;;;;5112734;28;20194;-68
2022/12/15 16:56:19;;;;;;;34.65;21.88;;;;;;;;;;5114183;28;20257;-69